createdAt,value
2017-06-05T00:00:34.922Z,12.5
2017-06-05T00:01:42.750Z,12.4
2017-06-05T00:02:50.242Z,12.4
2017-06-05T00:03:57.738Z,12.4
2017-06-05T00:05:05.229Z,12.4
2017-06-05T00:06:12.372Z,12.4
2017-06-05T00:07:20.208Z,12.4
2017-06-05T00:08:28.100Z,12.4
2017-06-05T00:09:35.260Z,12.4
2017-06-05T00:10:42.414Z,12.3
2017-06-05T00:11:49.892Z,12.3
2017-06-05T00:12:57.729Z,12.3
2017-06-05T00:14:05.204Z,12.3
2017-06-05T00:15:12.686Z,12.3
2017-06-05T00:16:20.170Z,12.3
2017-06-05T00:17:27.655Z,12.2
2017-06-05T00:18:35.501Z,12.2
2017-06-05T00:19:42.984Z,12.2
2017-06-05T00:20:50.479Z,12.1
2017-06-05T00:21:57.956Z,12.1
2017-06-05T00:23:05.452Z,12.2
2017-06-05T00:24:13.280Z,12.1
2017-06-05T00:25:20.763Z,12.1
2017-06-05T00:26:28.246Z,12.1
2017-06-05T00:27:35.729Z,12.2
2017-06-05T00:28:42.882Z,12.1
2017-06-05T00:29:50.393Z,12.1
2017-06-05T00:30:57.873Z,12.2
2017-06-05T00:32:05.353Z,12.2
2017-06-05T00:33:12.499Z,12.2
2017-06-05T00:34:20.011Z,12.1
2017-06-05T00:35:27.840Z,12.1
2017-06-05T00:36:35.319Z,12.1
2017-06-05T00:37:42.815Z,12.1
2017-06-05T00:38:50.298Z,12
2017-06-05T00:39:58.015Z,12
2017-06-05T00:41:05.794Z,12
2017-06-05T00:42:13.307Z,12
2017-06-05T00:43:20.819Z,12.1
2017-06-05T00:44:28.305Z,12.1
2017-06-05T00:45:35.791Z,12
2017-06-05T00:46:43.576Z,12
2017-06-05T00:47:51.055Z,12.1
2017-06-05T00:48:58.540Z,12.1
2017-06-05T00:50:06.023Z,12.1
2017-06-05T00:51:13.503Z,12.1
2017-06-05T00:52:20.952Z,12.1
2017-06-05T00:53:28.430Z,12.1
2017-06-05T00:54:35.583Z,12.1
2017-06-05T00:55:42.748Z,12.1
2017-06-05T00:56:50.236Z,12.1
2017-06-05T00:57:58.026Z,12.1
2017-06-05T00:59:05.579Z,12.1
2017-06-05T01:00:13.207Z,12.1
2017-06-05T01:01:20.364Z,12.1
2017-06-05T01:02:27.849Z,12.1
2017-06-05T01:03:35.684Z,12
2017-06-05T01:04:43.200Z,12
2017-06-05T01:05:50.676Z,11.9
2017-06-05T01:06:57.837Z,11.9
2017-06-05T01:08:05.326Z,11.9
2017-06-05T01:09:12.827Z,11.9
2017-06-05T01:10:20.319Z,11.9
2017-06-05T01:11:27.802Z,11.8
2017-06-05T01:12:35.283Z,11.9
2017-06-05T01:13:42.792Z,11.8
2017-06-05T01:14:50.645Z,11.9
2017-06-05T01:15:57.789Z,11.7
2017-06-05T01:17:05.271Z,11.7
2017-06-05T01:18:12.755Z,11.6
2017-06-05T01:19:20.244Z,11.6
2017-06-05T01:20:27.763Z,11.6
2017-06-05T01:21:35.247Z,11.6
2017-06-05T01:22:42.737Z,11.6
2017-06-05T01:23:50.219Z,11.6
2017-06-05T01:24:57.699Z,11.6
2017-06-05T01:26:05.530Z,11.6
2017-06-05T01:27:13.007Z,11.6
2017-06-05T01:28:20.171Z,11.6
2017-06-05T01:29:27.655Z,11.5
2017-06-05T01:30:35.135Z,11.5
2017-06-05T01:31:42.973Z,11.6
2017-06-05T01:32:50.462Z,11.6
2017-06-05T01:33:57.943Z,11.6
2017-06-05T01:35:05.434Z,11.6
2017-06-05T01:36:12.913Z,11.6
2017-06-05T01:37:20.749Z,11.6
2017-06-05T01:38:27.896Z,11.6
2017-06-05T01:39:35.045Z,11.6
2017-06-05T01:40:41.873Z,11.6
2017-06-05T01:41:49.350Z,11.7
2017-06-05T01:42:56.852Z,11.8
2017-06-05T01:44:04.011Z,11.8
2017-06-05T01:45:11.492Z,11.8
2017-06-05T01:46:18.981Z,11.7
2017-06-05T01:47:26.469Z,11.8
2017-06-05T01:48:34.311Z,11.8
2017-06-05T01:49:56.377Z,11.9
2017-06-05T01:51:03.860Z,11.9
2017-06-05T01:52:11.345Z,11.9
2017-06-05T01:53:18.833Z,11.9
2017-06-05T01:54:26.334Z,11.8
2017-06-05T01:55:33.823Z,11.8
2017-06-05T01:56:40.841Z,11.7
2017-06-05T01:57:48.332Z,11.8
2017-06-05T01:58:55.816Z,11.8
2017-06-05T02:00:03.657Z,11.7
2017-06-05T02:01:11.136Z,11.7
2017-06-05T02:02:18.009Z,11.7
2017-06-05T02:03:25.496Z,11.7
2017-06-05T02:04:32.978Z,11.7
2017-06-05T02:05:40.808Z,11.6
2017-06-05T02:06:48.290Z,11.6
2017-06-05T02:07:55.452Z,11.5
2017-06-05T02:09:02.937Z,11.5
2017-06-05T02:10:10.424Z,11.5
2017-06-05T02:11:18.265Z,11.5
2017-06-05T02:12:25.754Z,11.6
2017-06-05T02:13:33.241Z,11.6
2017-06-05T02:14:40.722Z,11.6
2017-06-05T02:15:47.874Z,11.6
2017-06-05T02:16:55.657Z,11.6
2017-06-05T02:18:03.143Z,11.6
2017-06-05T02:19:10.623Z,11.6
2017-06-05T02:20:18.107Z,11.7
2017-06-05T02:21:25.587Z,11.7
2017-06-05T02:22:33.412Z,11.7
2017-06-05T02:23:40.897Z,11.7
2017-06-05T02:24:48.057Z,11.7
2017-06-05T02:25:55.213Z,11.7
2017-06-05T02:27:02.715Z,11.7
2017-06-05T02:28:10.549Z,11.7
2017-06-05T02:29:18.034Z,11.7
2017-06-05T02:30:25.517Z,11.7
2017-06-05T02:31:33.000Z,11.7
2017-06-05T02:32:40.697Z,11.6
2017-06-05T02:33:48.529Z,11.6
2017-06-05T02:34:55.685Z,11.6
2017-06-05T02:36:02.847Z,11.6
2017-06-05T02:37:10.328Z,11.6
2017-06-05T02:38:17.484Z,11.6
2017-06-05T02:39:25.322Z,11.6
2017-06-05T02:40:32.481Z,11.6
2017-06-05T02:41:39.965Z,11.6
2017-06-05T02:42:47.453Z,11.6
2017-06-05T02:43:54.605Z,11.6
2017-06-05T02:45:02.449Z,11.6
2017-06-05T02:46:09.934Z,11.6
2017-06-05T02:47:17.414Z,11.6
2017-06-05T02:48:24.893Z,11.5
2017-06-05T02:49:32.601Z,11.5
2017-06-05T02:50:40.057Z,11.5
2017-06-05T02:51:47.541Z,11.5
2017-06-05T02:52:55.022Z,11.5
2017-06-05T02:54:02.510Z,11.5
2017-06-05T02:55:09.997Z,11.5
2017-06-05T02:56:17.840Z,11.5
2017-06-05T02:57:25.007Z,11.6
2017-06-05T02:58:31.835Z,11.6
2017-06-05T02:59:39.328Z,11.5
2017-06-05T03:00:46.821Z,11.6
2017-06-05T03:01:54.322Z,11.6
2017-06-05T03:03:02.041Z,11.6
2017-06-05T03:04:09.514Z,11.5
2017-06-05T03:05:16.998Z,11.5
2017-06-05T03:06:24.478Z,11.6
2017-06-05T03:07:32.270Z,11.6
2017-06-05T03:08:39.755Z,11.6
2017-06-05T03:09:47.239Z,11.6
2017-06-05T03:10:54.727Z,11.6
2017-06-05T03:12:02.209Z,11.6
2017-06-05T03:13:09.899Z,11.6
2017-06-05T03:14:17.383Z,11.7
2017-06-05T03:15:24.568Z,11.7
2017-06-05T03:16:32.050Z,11.7
2017-06-05T03:17:39.532Z,11.7
2017-06-05T03:18:47.319Z,11.7
2017-06-05T03:19:54.830Z,11.7
2017-06-05T03:21:02.304Z,11.7
2017-06-05T03:22:09.455Z,11.7
2017-06-05T03:23:16.944Z,11.7
2017-06-05T03:24:24.728Z,11.7
2017-06-05T03:25:32.215Z,11.7
2017-06-05T03:26:39.695Z,11.7
2017-06-05T03:27:47.173Z,11.7
2017-06-05T03:28:54.659Z,11.7
2017-06-05T03:30:02.501Z,11.7
2017-06-05T03:31:09.984Z,11.7
2017-06-05T03:32:17.477Z,11.7
2017-06-05T03:33:24.664Z,11.7
2017-06-05T03:34:32.141Z,11.7
2017-06-05T03:35:39.966Z,11.8
2017-06-05T03:36:47.124Z,11.7
2017-06-05T03:37:54.601Z,11.7
2017-06-05T03:39:01.782Z,11.7
2017-06-05T03:40:09.266Z,11.8
2017-06-05T03:41:17.103Z,11.8
2017-06-05T03:42:24.601Z,11.8
2017-06-05T03:43:32.087Z,11.8
2017-06-05T03:44:39.803Z,11.9
2017-06-05T03:45:46.950Z,11.9
2017-06-05T03:46:54.782Z,11.9
2017-06-05T03:48:02.261Z,11.9
2017-06-05T03:49:09.735Z,12
2017-06-05T03:50:16.898Z,11.9
2017-06-05T03:51:24.055Z,12
2017-06-05T03:52:31.887Z,12
2017-06-05T03:53:39.373Z,12
2017-06-05T03:54:46.854Z,12
2017-06-05T03:55:53.668Z,12
2017-06-05T03:57:01.151Z,12
2017-06-05T03:58:09.007Z,12
2017-06-05T03:59:16.509Z,12
2017-06-05T04:00:24.001Z,12
2017-06-05T04:01:31.362Z,12
2017-06-05T04:02:38.877Z,12
2017-06-05T04:03:46.664Z,12
2017-06-05T04:04:54.148Z,12
2017-06-05T04:06:01.643Z,12.1
2017-06-05T04:07:08.787Z,12.1
2017-06-05T04:08:16.275Z,12.2
2017-06-05T04:09:23.448Z,12.2
2017-06-05T04:10:30.926Z,12.2
2017-06-05T04:11:38.409Z,12.2
2017-06-05T04:12:45.891Z,12.2
2017-06-05T04:13:53.376Z,12.2
2017-06-05T04:15:01.211Z,12.2
2017-06-05T04:16:08.697Z,12.3
2017-06-05T04:17:16.183Z,12.4
2017-06-05T04:18:23.675Z,12.4
2017-06-05T04:19:31.157Z,12.4
2017-06-05T04:20:38.667Z,12.4
2017-06-05T04:21:46.175Z,12.5
2017-06-05T04:22:53.657Z,12.5
2017-06-05T04:24:00.809Z,12.5
2017-06-05T04:25:07.991Z,12.5
2017-06-05T04:26:15.827Z,12.5
2017-06-05T04:27:23.308Z,12.5
2017-06-05T04:28:30.454Z,12.5
2017-06-05T04:29:37.616Z,12.5
2017-06-05T04:30:45.097Z,12.5
2017-06-05T04:31:52.939Z,12.5
2017-06-05T04:33:00.425Z,12.6
2017-06-05T04:34:07.899Z,12.6
2017-06-05T04:35:15.387Z,12.6
2017-06-05T04:36:22.873Z,12.7
2017-06-05T04:37:30.379Z,12.8
2017-06-05T04:38:37.864Z,12.8
2017-06-05T04:39:45.016Z,12.8
2017-06-05T04:40:52.502Z,12.9
2017-06-05T04:41:59.983Z,12.9
2017-06-05T04:43:07.810Z,12.9
2017-06-05T04:44:15.298Z,12.9
2017-06-05T04:45:22.781Z,12.9
2017-06-05T04:46:30.269Z,13
2017-06-05T04:47:37.749Z,13
2017-06-05T04:48:45.254Z,13
2017-06-05T04:49:52.737Z,13.1
2017-06-05T04:51:00.219Z,13.1
2017-06-05T04:52:07.706Z,13.1
2017-06-05T04:53:15.188Z,13.1
2017-06-05T04:54:23.018Z,13.2
2017-06-05T04:55:30.507Z,13.2
2017-06-05T04:56:37.990Z,13.3
2017-06-05T04:57:45.475Z,13.3
2017-06-05T04:58:52.955Z,13.3
2017-06-05T05:00:00.791Z,13.3
2017-06-05T05:01:08.528Z,13.3
2017-06-05T05:02:16.054Z,13.3
2017-06-05T05:03:22.884Z,13.4
2017-06-05T05:04:30.371Z,13.4
2017-06-05T05:05:38.197Z,13.4
2017-06-05T05:06:45.682Z,13.5
2017-06-05T05:07:52.834Z,13.5
2017-06-05T05:09:00.311Z,13.5
2017-06-05T05:10:07.828Z,13.6
2017-06-05T05:11:15.432Z,13.6
2017-06-05T05:12:22.257Z,13.7
2017-06-05T05:13:29.738Z,13.6
2017-06-05T05:14:37.223Z,13.6
2017-06-05T05:15:44.705Z,13.5
2017-06-05T05:16:52.481Z,13.4
2017-06-05T05:17:59.967Z,13.4
2017-06-05T05:19:07.446Z,13.4
2017-06-05T05:20:14.915Z,13.4
2017-06-05T05:21:22.073Z,13.5
2017-06-05T05:22:29.905Z,13.5
2017-06-05T05:23:37.385Z,13.6
2017-06-05T05:24:44.899Z,13.7
2017-06-05T05:25:52.385Z,13.8
2017-06-05T05:26:59.868Z,13.9
2017-06-05T05:28:07.737Z,13.9
2017-06-05T05:29:15.229Z,14
2017-06-05T05:30:22.388Z,14
2017-06-05T05:31:29.879Z,14.1
2017-06-05T05:32:37.362Z,14.2
2017-06-05T05:33:45.205Z,14.3
2017-06-05T05:34:52.693Z,14.3
2017-06-05T05:35:59.841Z,14.4
2017-06-05T05:37:07.357Z,14.5
2017-06-05T05:38:14.514Z,14.5
2017-06-05T05:39:22.023Z,14.5
2017-06-05T05:40:29.511Z,14.6
2017-06-05T05:41:36.991Z,14.7
2017-06-05T05:42:44.475Z,14.8
2017-06-05T05:43:51.646Z,15
2017-06-05T05:44:59.481Z,15.2
2017-06-05T05:46:06.963Z,15.2
2017-06-05T05:47:14.446Z,15.3
2017-06-05T05:48:21.928Z,15.3
2017-06-05T05:49:29.402Z,15.2
2017-06-05T05:50:37.242Z,15.2
2017-06-05T05:51:44.405Z,15.2
2017-06-05T05:52:52.152Z,15.2
2017-06-05T05:53:59.636Z,15.1
2017-06-05T05:55:06.792Z,14.7
2017-06-05T05:56:14.626Z,14.6
2017-06-05T05:57:22.142Z,14.7
2017-06-05T05:58:29.628Z,14.9
2017-06-05T05:59:37.116Z,15
2017-06-05T06:00:44.600Z,15
2017-06-05T06:01:52.462Z,15
2017-06-05T06:02:59.948Z,15
2017-06-05T06:04:07.102Z,15
2017-06-05T06:05:14.591Z,15.1
2017-06-05T06:06:22.079Z,15.2
2017-06-05T06:07:29.923Z,15.1
2017-06-05T06:08:37.083Z,15.2
2017-06-05T06:09:44.595Z,15.2
2017-06-05T06:10:52.081Z,15.2
2017-06-05T06:11:59.578Z,15.4
2017-06-05T06:13:07.362Z,15.5
2017-06-05T06:14:14.845Z,15.4
2017-06-05T06:15:22.330Z,15.2
2017-06-05T06:16:29.490Z,15.2
2017-06-05T06:17:36.968Z,15.3
2017-06-05T06:18:44.485Z,15.5
2017-06-05T06:19:51.982Z,15.8
2017-06-05T06:20:59.470Z,16.1
2017-06-05T06:22:06.952Z,16.2
2017-06-05T06:23:14.443Z,16.2
2017-06-05T06:24:22.281Z,16.4
2017-06-05T06:25:29.769Z,16.7
2017-06-05T06:26:37.261Z,16.9
2017-06-05T06:27:44.774Z,16.9
2017-06-05T06:28:52.262Z,16.8
2017-06-05T06:30:00.114Z,16.6
2017-06-05T06:31:07.598Z,16.5
2017-06-05T06:32:15.081Z,16.1
2017-06-05T06:33:22.565Z,15.8
2017-06-05T06:34:30.056Z,15.9
2017-06-05T06:35:37.889Z,15.9
2017-06-05T06:36:45.361Z,16
2017-06-05T06:37:53.250Z,16
2017-06-05T06:39:00.731Z,15.9
2017-06-05T06:40:08.223Z,16.1
2017-06-05T06:41:15.982Z,16.3
2017-06-05T06:42:23.470Z,16.4
2017-06-05T06:43:30.626Z,16.7
2017-06-05T06:44:38.107Z,16.8
2017-06-05T06:45:45.588Z,17
2017-06-05T06:46:53.430Z,17.1
2017-06-05T06:48:00.918Z,17.1
2017-06-05T06:49:08.398Z,17
2017-06-05T06:50:15.882Z,17
2017-06-05T06:51:23.361Z,17.1
2017-06-05T06:52:31.203Z,17.3
2017-06-05T06:53:38.358Z,17.6
2017-06-05T06:54:45.529Z,17.5
2017-06-05T06:55:53.014Z,17.6
2017-06-05T06:57:00.503Z,17.6
2017-06-05T06:58:08.342Z,17.7
2017-06-05T06:59:15.505Z,17.8
2017-06-05T07:00:22.988Z,17.9
2017-06-05T07:01:30.154Z,17.8
2017-06-05T07:02:37.640Z,18
2017-06-05T07:03:45.483Z,18
2017-06-05T07:04:52.986Z,18
2017-06-05T07:06:00.148Z,17.7
2017-06-05T07:07:07.634Z,17.7
2017-06-05T07:08:15.112Z,17.7
2017-06-05T07:09:22.952Z,17.8
2017-06-05T07:10:30.439Z,17.7
2017-06-05T07:11:37.265Z,17.8
2017-06-05T07:12:44.750Z,17.9
2017-06-05T07:13:52.230Z,18.2
2017-06-05T07:15:00.077Z,18.4
2017-06-05T07:16:07.233Z,18.4
2017-06-05T07:17:14.727Z,18.5
2017-06-05T07:18:21.889Z,18.4
2017-06-05T07:19:29.379Z,18.3
2017-06-05T07:20:37.212Z,18
2017-06-05T07:21:44.706Z,18
2017-06-05T07:22:52.190Z,18.1
2017-06-05T07:23:59.681Z,18.4
2017-06-05T07:25:06.838Z,18.6
2017-06-05T07:26:14.672Z,18.7
2017-06-05T07:27:22.169Z,18.7
2017-06-05T07:28:29.658Z,18.8
2017-06-05T07:29:37.151Z,19
2017-06-05T07:30:44.643Z,19.3
2017-06-05T07:31:52.482Z,19.1
2017-06-05T07:32:59.965Z,19.1
2017-06-05T07:34:07.463Z,19.4
2017-06-05T07:35:14.956Z,19.9
2017-06-05T07:36:22.448Z,19.9
2017-06-05T07:37:29.984Z,20
2017-06-05T07:38:37.473Z,20.3
2017-06-05T07:39:44.961Z,20.4
2017-06-05T07:40:52.451Z,20.4
2017-06-05T07:42:14.526Z,20.1
2017-06-05T07:43:22.049Z,19.7
2017-06-05T07:44:29.582Z,19.9
2017-06-05T07:45:37.068Z,20.1
2017-06-05T07:46:44.557Z,20.2
2017-06-05T07:47:52.044Z,20.4
2017-06-05T07:48:59.886Z,20.4
2017-06-05T07:50:07.048Z,20.4
2017-06-05T07:51:14.538Z,20.3
2017-06-05T07:52:21.714Z,20.2
2017-06-05T07:53:29.207Z,20.1
2017-06-05T07:54:37.038Z,20.2
2017-06-05T07:55:44.204Z,20.3
2017-06-05T07:56:51.704Z,20.2
2017-06-05T07:57:59.191Z,20.1
2017-06-05T07:59:06.698Z,20.1
2017-06-05T08:00:14.538Z,20
2017-06-05T08:01:22.037Z,20.1
2017-06-05T08:02:29.526Z,20.1
2017-06-05T08:03:37.015Z,20.4
2017-06-05T08:04:44.512Z,20.5
2017-06-05T08:05:52.352Z,20.7
2017-06-05T08:06:59.838Z,20.7
2017-06-05T08:08:06.991Z,20.8
2017-06-05T08:09:14.477Z,20.6
2017-06-05T08:10:21.995Z,20.6
2017-06-05T08:11:29.835Z,20.6
2017-06-05T08:12:36.998Z,20.7
2017-06-05T08:13:44.161Z,20.9
2017-06-05T08:14:51.653Z,20.9
2017-06-05T08:15:59.161Z,20.8
2017-06-05T08:17:07.007Z,20.6
2017-06-05T08:18:14.493Z,20.5
2017-06-05T08:19:21.988Z,20.7
2017-06-05T08:20:28.811Z,20.6
2017-06-05T08:21:36.306Z,20.7
2017-06-05T08:22:44.147Z,20.8
2017-06-05T08:23:51.665Z,20.9
2017-06-05T08:24:59.180Z,21
2017-06-05T08:26:06.305Z,21
2017-06-05T08:27:13.801Z,21.2
2017-06-05T08:28:21.645Z,21
2017-06-05T08:29:29.144Z,20.8
2017-06-05T08:30:36.637Z,20.5
2017-06-05T08:31:44.120Z,20.3
2017-06-05T08:32:51.849Z,20.4
2017-06-05T08:33:59.688Z,20.7
2017-06-05T08:35:07.177Z,20.9
2017-06-05T08:36:14.668Z,20.9
2017-06-05T08:37:22.178Z,20.9
2017-06-05T08:38:29.341Z,21
2017-06-05T08:39:37.134Z,20.9
2017-06-05T08:40:44.619Z,20.8
2017-06-05T08:41:52.116Z,20.7
2017-06-05T08:42:59.602Z,20.7
2017-06-05T08:44:07.094Z,20.9
2017-06-05T08:45:14.881Z,21
2017-06-05T08:46:22.362Z,21.1
2017-06-05T08:47:29.858Z,21.1
2017-06-05T08:48:37.356Z,21.2
2017-06-05T08:49:44.842Z,21.2
2017-06-05T08:50:52.673Z,21.2
2017-06-05T08:52:00.162Z,21.4
2017-06-05T08:53:07.684Z,21.6
2017-06-05T08:54:15.169Z,21.6
2017-06-05T08:55:22.329Z,21.4
2017-06-05T08:56:30.122Z,21.4
2017-06-05T08:57:37.624Z,21.3
2017-06-05T08:58:45.112Z,21.2
2017-06-05T08:59:52.594Z,21
2017-06-05T09:01:00.081Z,20.9
2017-06-05T09:02:07.212Z,20.9
2017-06-05T09:03:14.698Z,21.2
2017-06-05T09:04:22.192Z,21.2
2017-06-05T09:05:29.679Z,21
2017-06-05T09:06:37.172Z,21
2017-06-05T09:07:44.694Z,20.9
2017-06-05T09:08:51.856Z,20.7
2017-06-05T09:09:59.344Z,20.6
2017-06-05T09:11:06.829Z,20.4
2017-06-05T09:12:14.333Z,20.4
2017-06-05T09:13:22.187Z,20.6
2017-06-05T09:14:29.686Z,20.7
2017-06-05T09:15:37.402Z,20.6
2017-06-05T09:16:44.570Z,20.5
2017-06-05T09:17:52.066Z,20.6
2017-06-05T09:18:59.574Z,20.6
2017-06-05T09:20:07.076Z,20.4
2017-06-05T09:21:14.235Z,20.3
2017-06-05T09:22:21.394Z,20.3
2017-06-05T09:23:28.570Z,20.4
2017-06-05T09:24:36.402Z,20.5
2017-06-05T09:25:43.898Z,20.6
2017-06-05T09:26:51.382Z,20.8
2017-06-05T09:27:58.552Z,20.9
2017-06-05T09:29:05.389Z,21
2017-06-05T09:30:13.236Z,20.9
2017-06-05T09:31:20.728Z,20.7
2017-06-05T09:32:28.212Z,20.7
2017-06-05T09:33:35.698Z,20.7
2017-06-05T09:34:43.189Z,20.8
2017-06-05T09:35:50.698Z,20.9
2017-06-05T09:36:57.541Z,20.9
2017-06-05T09:38:05.034Z,21
2017-06-05T09:39:12.530Z,21
2017-06-05T09:40:20.023Z,20.9
2017-06-05T09:41:27.868Z,21
2017-06-05T09:42:35.032Z,21
2017-06-05T09:43:42.533Z,20.9
2017-06-05T09:44:50.036Z,20.8
2017-06-05T09:45:57.538Z,20.5
2017-06-05T09:47:05.053Z,20.4
2017-06-05T09:48:13.172Z,20.4
2017-06-05T09:49:20.235Z,20.5
2017-06-05T09:50:27.725Z,20.4
2017-06-05T09:51:35.213Z,20.4
2017-06-05T09:52:42.399Z,20.4
2017-06-05T09:53:49.884Z,20.4
2017-06-05T09:54:57.373Z,20.5
2017-06-05T09:56:04.870Z,20.6
2017-06-05T09:57:12.369Z,20.6
2017-06-05T09:58:20.206Z,20.6
2017-06-05T09:59:27.692Z,20.6
2017-06-05T10:00:34.874Z,20.6
2017-06-05T10:01:42.372Z,20.4
2017-06-05T10:02:49.860Z,20.1
2017-06-05T10:03:57.713Z,20.1
2017-06-05T10:05:05.198Z,20
2017-06-05T10:06:12.687Z,20
2017-06-05T10:07:20.184Z,20
2017-06-05T10:08:27.665Z,20
2017-06-05T10:09:35.530Z,20.1
2017-06-05T10:10:43.418Z,19.9
2017-06-05T10:11:50.920Z,19.7
2017-06-05T10:12:58.406Z,19.6
2017-06-05T10:14:05.571Z,19.7
2017-06-05T10:15:13.091Z,19.7
2017-06-05T10:16:20.574Z,19.6
2017-06-05T10:17:28.070Z,19.6
2017-06-05T10:18:35.556Z,19.6
2017-06-05T10:19:43.046Z,19.5
2017-06-05T10:20:50.829Z,19.4
2017-06-05T10:21:58.313Z,19.3
2017-06-05T10:23:05.791Z,19.4
2017-06-05T10:24:13.288Z,19.3
2017-06-05T10:25:20.779Z,19.3
2017-06-05T10:26:28.561Z,19.3
2017-06-05T10:27:36.047Z,19.5
2017-06-05T10:28:43.531Z,19.5
2017-06-05T10:29:51.018Z,19.5
2017-06-05T10:30:58.506Z,19.6
2017-06-05T10:32:06.301Z,19.6
2017-06-05T10:33:13.787Z,19.6
2017-06-05T10:34:20.942Z,19.7
2017-06-05T10:35:28.102Z,19.9
2017-06-05T10:36:35.262Z,20
2017-06-05T10:37:43.070Z,20.1
2017-06-05T10:38:50.561Z,20.1
2017-06-05T10:39:58.055Z,20.1
2017-06-05T10:41:05.540Z,19.9
2017-06-05T10:42:13.044Z,19.9
2017-06-05T10:43:20.825Z,19.9
2017-06-05T10:44:28.320Z,19.7
2017-06-05T10:45:35.806Z,19.6
2017-06-05T10:46:43.296Z,19.6
2017-06-05T10:47:50.788Z,19.6
2017-06-05T10:48:58.571Z,19.5
2017-06-05T10:50:05.728Z,19.3
2017-06-05T10:51:13.213Z,19.2
2017-06-05T10:52:20.713Z,18.9
2017-06-05T10:53:28.193Z,18.8
2017-06-05T10:54:35.977Z,18.7
2017-06-05T10:55:43.463Z,18.6
2017-06-05T10:56:50.954Z,18.5
2017-06-05T10:57:58.456Z,18.6
2017-06-05T10:59:05.938Z,18.7
2017-06-05T11:00:13.724Z,18.6
2017-06-05T11:01:21.217Z,18.5
2017-06-05T11:02:28.704Z,18.3
2017-06-05T11:03:36.185Z,18.1
2017-06-05T11:04:43.672Z,18.1
2017-06-05T11:05:51.455Z,18
2017-06-05T11:06:58.937Z,18
2017-06-05T11:08:06.424Z,17.8
2017-06-05T11:09:13.914Z,17.8
2017-06-05T11:10:21.402Z,17.9
2017-06-05T11:11:29.187Z,17.9
2017-06-05T11:12:36.681Z,17.7
2017-06-05T11:13:44.177Z,17.6
2017-06-05T11:14:51.663Z,17.7
2017-06-05T11:15:59.154Z,17.8
2017-06-05T11:17:06.937Z,17.6
2017-06-05T11:18:14.097Z,17.3
2017-06-05T11:19:21.584Z,17.1
2017-06-05T11:20:29.069Z,17
2017-06-05T11:21:36.557Z,16.9
2017-06-05T11:22:44.021Z,16.8
2017-06-05T11:23:51.512Z,16.6
2017-06-05T11:24:59.005Z,16.5
2017-06-05T11:26:06.491Z,16.3
2017-06-05T11:27:14.005Z,16.3
2017-06-05T11:28:21.790Z,16.3
2017-06-05T11:29:29.283Z,16.4
2017-06-05T11:30:36.767Z,16.3
2017-06-05T11:31:44.252Z,16.3
2017-06-05T11:32:51.739Z,16.4
2017-06-05T11:33:59.525Z,16.5
2017-06-05T11:35:07.011Z,16.4
2017-06-05T11:36:14.489Z,16.4
2017-06-05T11:37:21.640Z,16.4
2017-06-05T11:38:29.144Z,16.4
2017-06-05T11:39:36.930Z,16.5
2017-06-05T11:40:44.098Z,16.5
2017-06-05T11:41:51.577Z,16.5
2017-06-05T11:42:59.058Z,16.6
2017-06-05T11:44:06.547Z,16.7
2017-06-05T11:45:14.335Z,16.7
2017-06-05T11:46:21.816Z,16.7
2017-06-05T11:47:29.302Z,16.7
2017-06-05T11:48:36.788Z,16.7
2017-06-05T11:49:44.279Z,16.7
2017-06-05T11:50:52.066Z,16.8
2017-06-05T11:51:59.555Z,16.9
2017-06-05T11:53:07.043Z,17
2017-06-05T11:54:14.523Z,17
2017-06-05T11:55:22.012Z,17.1
2017-06-05T11:56:29.808Z,17.1
2017-06-05T11:57:37.294Z,17.1
2017-06-05T11:58:44.774Z,17.1
2017-06-05T11:59:52.259Z,17.1
2017-06-05T12:00:59.742Z,17.2
2017-06-05T12:02:07.529Z,17.2
2017-06-05T12:03:15.016Z,17.2
2017-06-05T12:04:22.177Z,17.1
2017-06-05T12:05:29.654Z,17.1
2017-06-05T12:06:36.807Z,17.1
2017-06-05T12:07:44.603Z,17.1
2017-06-05T12:08:52.088Z,17.1
2017-06-05T12:09:58.914Z,17.2
2017-06-05T12:11:06.427Z,17.3
2017-06-05T12:12:13.916Z,17.3
2017-06-05T12:13:21.709Z,17.4
2017-06-05T12:14:28.863Z,17.3
2017-06-05T12:15:36.346Z,17.4
2017-06-05T12:16:43.828Z,17.4
2017-06-05T12:17:51.314Z,17.4
2017-06-05T12:18:59.096Z,17.4
2017-06-05T12:20:06.576Z,17.5
2017-06-05T12:21:14.056Z,17.7
2017-06-05T12:22:21.534Z,17.7
2017-06-05T12:23:28.703Z,17.8
2017-06-05T12:24:36.495Z,17.6
2017-06-05T12:25:43.984Z,17.6
2017-06-05T12:26:51.476Z,17.6
2017-06-05T12:27:58.963Z,17.7
2017-06-05T12:29:06.457Z,17.5
2017-06-05T12:30:14.242Z,17.5
2017-06-05T12:31:21.745Z,17.5
2017-06-05T12:32:29.230Z,17.6
2017-06-05T12:33:36.720Z,17.6
2017-06-05T12:34:44.207Z,17.4
2017-06-05T12:35:51.657Z,17.3
2017-06-05T12:36:58.810Z,17.1
2017-06-05T12:38:05.963Z,17.1
2017-06-05T12:39:13.448Z,17.2
2017-06-05T12:40:20.932Z,17.1
2017-06-05T12:41:28.717Z,17.1
2017-06-05T12:42:36.201Z,17.1
2017-06-05T12:43:43.686Z,17.1
2017-06-05T12:44:51.172Z,17
2017-06-05T12:45:58.652Z,17
2017-06-05T12:47:06.438Z,17
2017-06-05T12:48:13.923Z,17
2017-06-05T12:49:21.409Z,16.9
2017-06-05T12:50:28.894Z,16.9
2017-06-05T12:51:36.414Z,17
2017-06-05T12:52:44.194Z,17.2
2017-06-05T12:53:51.675Z,17.3
2017-06-05T12:54:58.834Z,17.3
2017-06-05T12:56:06.317Z,17.2
2017-06-05T12:57:13.808Z,17.2
2017-06-05T12:58:21.316Z,17.3
2017-06-05T12:59:28.815Z,17.2
2017-06-05T13:00:35.966Z,17.2
2017-06-05T13:01:43.451Z,17.2
2017-06-05T13:02:50.603Z,17.2
2017-06-05T13:03:58.395Z,17.2
2017-06-05T13:05:05.552Z,17.3
2017-06-05T13:06:13.049Z,17.4
2017-06-05T13:07:20.528Z,17.4
2017-06-05T13:08:28.012Z,17.5
2017-06-05T13:09:35.815Z,17.5
2017-06-05T13:10:42.972Z,17.5
2017-06-05T13:11:50.454Z,17.5
2017-06-05T13:12:57.949Z,17.5
2017-06-05T13:14:05.103Z,17.6
2017-06-05T13:15:12.918Z,17.7
2017-06-05T13:16:20.074Z,17.7
2017-06-05T13:17:27.559Z,17.6
2017-06-05T13:18:35.493Z,17.6
2017-06-05T13:19:42.978Z,17.6
2017-06-05T13:20:50.761Z,17.7
2017-06-05T13:21:58.246Z,17.8
2017-06-05T13:23:05.733Z,17.7
2017-06-05T13:24:12.890Z,17.6
2017-06-05T13:25:20.059Z,17.6
2017-06-05T13:26:27.519Z,17.7
2017-06-05T13:27:35.005Z,17.8
2017-06-05T13:28:42.496Z,17.8
2017-06-05T13:29:49.987Z,17.9
2017-06-05T13:30:57.469Z,17.8
2017-06-05T13:32:04.933Z,17.9
2017-06-05T13:33:12.419Z,17.9
2017-06-05T13:34:19.902Z,18
2017-06-05T13:35:27.387Z,18.1
2017-06-05T13:36:34.882Z,18.1
2017-06-05T13:37:42.339Z,18.1
2017-06-05T13:38:49.823Z,18.1
2017-06-05T13:39:57.304Z,18.2
2017-06-05T13:41:04.468Z,18.1
2017-06-05T13:42:11.956Z,18
2017-06-05T13:43:19.747Z,17.9
2017-06-05T13:44:27.239Z,17.8
2017-06-05T13:45:34.763Z,17.8
2017-06-05T13:46:42.239Z,17.7
2017-06-05T13:47:49.392Z,17.6
2017-06-05T13:48:56.848Z,17.5
2017-06-05T13:50:04.338Z,17.5
2017-06-05T13:51:11.491Z,17.5
2017-06-05T13:52:18.984Z,17.6
2017-06-05T13:53:26.145Z,17.7
2017-06-05T13:54:33.600Z,17.8
2017-06-05T13:55:41.085Z,17.9
2017-06-05T13:56:48.569Z,18
2017-06-05T13:57:56.064Z,18.1
2017-06-05T13:59:03.557Z,18.2
2017-06-05T14:00:11.340Z,18.4
2017-06-05T14:01:18.822Z,18.5
2017-06-05T14:02:26.312Z,18.5
2017-06-05T14:03:33.462Z,18.6
2017-06-05T14:04:40.967Z,18.6
2017-06-05T14:05:48.428Z,18.6
2017-06-05T14:06:55.940Z,18.7
2017-06-05T14:08:03.419Z,18.7
2017-06-05T14:09:10.906Z,18.8
2017-06-05T14:10:18.399Z,18.8
2017-06-05T14:11:26.191Z,18.8
2017-06-05T14:12:33.680Z,18.9
2017-06-05T14:13:41.182Z,19
2017-06-05T14:14:48.669Z,18.9
2017-06-05T14:15:55.819Z,19
2017-06-05T14:17:03.655Z,19.1
2017-06-05T14:18:10.812Z,19.1
2017-06-05T14:19:18.300Z,19.2
2017-06-05T14:20:26.134Z,19.1
2017-06-05T14:21:34.246Z,19.1
2017-06-05T14:22:42.253Z,19.1
2017-06-05T14:23:50.028Z,19.1
2017-06-05T14:24:57.783Z,19
2017-06-05T14:26:05.272Z,18.8
2017-06-05T14:27:12.760Z,18.7
2017-06-05T14:28:20.608Z,18.7
2017-06-05T14:29:28.093Z,18.5
2017-06-05T14:30:35.861Z,18.5
2017-06-05T14:31:43.346Z,18.4
2017-06-05T14:32:50.521Z,18.3
2017-06-05T14:33:58.357Z,18.3
2017-06-05T14:35:05.840Z,18.3
2017-06-05T14:36:12.997Z,18.3
2017-06-05T14:37:20.480Z,18.2
2017-06-05T14:38:28.007Z,18.2
2017-06-05T14:39:35.855Z,18.1
2017-06-05T14:40:43.333Z,18
2017-06-05T14:41:50.528Z,17.8
2017-06-05T14:42:58.019Z,17.7
2017-06-05T14:44:05.508Z,17.6
2017-06-05T14:45:27.873Z,17.6
2017-06-05T14:46:35.371Z,17.4
2017-06-05T14:47:42.905Z,17.4
2017-06-05T14:48:50.065Z,17.5
2017-06-05T14:49:57.562Z,17.6
2017-06-05T14:51:05.425Z,17.6
2017-06-05T14:52:12.925Z,17.6
2017-06-05T14:53:20.418Z,17.6
2017-06-05T14:54:27.900Z,17.6
2017-06-05T14:55:35.388Z,17.6
2017-06-05T14:56:43.229Z,17.5
2017-06-05T14:57:50.713Z,17.5
2017-06-05T14:58:58.226Z,17.6
2017-06-05T15:00:05.734Z,17.6
2017-06-05T15:01:13.223Z,17.6
2017-06-05T15:02:21.073Z,17.6
2017-06-05T15:03:28.559Z,17.6
2017-06-05T15:04:36.048Z,17.6